This is the latest recevied weather packets stored in our database for station/object KQ4KX. If no packets are shown the sender has not sent any weather packets the latest 10 day(s).
| Time | Temp. | Humidity | Pressure | Rain* | Wind** | Luminosity | Snow |
|---|---|---|---|---|---|---|---|
| 1777755209 | 21.11° C | 92% | 1011.1 hPa | 0.51 mm | - | - | - |
| 1777754914 | 21.11° C | 91% | 1011 hPa | 0.25 mm | - | - | - |
| 1777754848 | 21.11° C | 91% | 1011 hPa | 0.25 mm | - | - | - |
| 1777754248 | 21.67° C | 90% | 1011.4 hPa | 0.25 mm | - | - | - |
| 1777753918 | 21.67° C | 89% | 1011.1 hPa | 0.25 mm | - | - | - |
| 1777752388 | 23.33° C | 84% | 1011.9 hPa | 0.25 mm | - | - | - |
| 1777752058 | 25.56° C | 75% | 1011.7 hPa | 0 mm | - | - | - |
| 1777751728 | 27.78° C | 79% | 1011.8 hPa | 0 mm | - | - | - |
| 1777750498 | 28.33° C | 78% | 1011.2 hPa | 0 mm | - | - | - |
| 1777750197 | 28.33° C | 77% | 1011.1 hPa | 0 mm | - | - | - |
| 1777749897 | 28.33° C | 78% | 1011 hPa | 0 mm | - | - | - |
| 1777749568 | 28.33° C | 78% | 1010.9 hPa | 0 mm | - | - | - |
| 1777749238 | 28.33° C | 78% | 1011.1 hPa | 0 mm | - | - | - |
| 1777747678 | 28.89° C | 74% | 1011 hPa | 0 mm | - | - | - |
| 1777747048 | 28.89° C | 72% | 1011 hPa | 0 mm | - | - | - |
| 1777746388 | 29.44° C | 71% | 1011.3 hPa | 0 mm | - | - | - |
| 1777745188 | 29.44° C | 71% | 1011.1 hPa | 0 mm | - | - | - |
| 1777744858 | 29.44° C | 70% | 1011.1 hPa | 0 mm | - | - | - |
| 1777744558 | 29.44° C | 69% | 1011 hPa | 0 mm | - | - | - |
| 1777744228 | 30° C | 69% | 1011 hPa | 0 mm | - | - | - |
| 1777743898 | 30° C | 69% | 1011.1 hPa | 0 mm | - | - | - |
| 1777743268 | 30° C | 70% | 1011.2 hPa | 0 mm | - | - | - |
| 1777742938 | 30° C | 70% | 1011.3 hPa | 0 mm | - | - | - |
| 1777742278 | 30° C | 69% | 1011.2 hPa | 0 mm | - | - | - |
| 1777740987 | 28.89° C | 74% | 1011.1 hPa | 0 mm | - | - | - |
* Rain latest hour (hover to see other rain measurements)
** Current wind speed in m/s (hover to see current wind gust speed)